sensor_id;sensor_type;location;lat;lon;timestamp;P1;durP1;ratioP1;P2;durP2;ratioP2
40595;SDS011;26304;48.794;9.820;2023-08-06T00:01:16;2.42;;;2.33;;
40595;SDS011;26304;48.794;9.820;2023-08-06T00:07:02;2.70;;;2.30;;
40595;SDS011;26304;48.794;9.820;2023-08-06T00:12:45;2.72;;;2.40;;
40595;SDS011;26304;48.794;9.820;2023-08-06T00:18:28;2.85;;;2.65;;
40595;SDS011;26304;48.794;9.820;2023-08-06T00:24:11;3.10;;;2.90;;
40595;SDS011;26304;48.794;9.820;2023-08-06T00:29:53;3.22;;;2.97;;
40595;SDS011;26304;48.794;9.820;2023-08-06T00:35:37;3.28;;;2.97;;
40595;SDS011;26304;48.794;9.820;2023-08-06T00:41:19;3.10;;;2.90;;
40595;SDS011;26304;48.794;9.820;2023-08-06T00:47:02;3.03;;;2.70;;
40595;SDS011;26304;48.794;9.820;2023-08-06T00:52:46;3.53;;;3.30;;
40595;SDS011;26304;48.794;9.820;2023-08-06T00:58:28;3.10;;;2.90;;
40595;SDS011;26304;48.794;9.820;2023-08-06T01:04:11;3.13;;;2.92;;
40595;SDS011;26304;48.794;9.820;2023-08-06T01:09:57;3.22;;;3.03;;
40595;SDS011;26304;48.794;9.820;2023-08-06T01:15:44;3.35;;;3.05;;
40595;SDS011;26304;48.794;9.820;2023-08-06T01:21:16;2.90;;;2.67;;
40595;SDS011;26304;48.794;9.820;2023-08-06T01:26:59;3.00;;;2.80;;
40595;SDS011;26304;48.794;9.820;2023-08-06T01:32:49;3.20;;;3.00;;
40595;SDS011;26304;48.794;9.820;2023-08-06T01:38:36;2.85;;;2.65;;
40595;SDS011;26304;48.794;9.820;2023-08-06T01:44:19;3.22;;;3.03;;
40595;SDS011;26304;48.794;9.820;2023-08-06T01:50:01;3.60;;;3.40;;
40595;SDS011;26304;48.794;9.820;2023-08-06T01:55:25;3.65;;;3.45;;
40595;SDS011;26304;48.794;9.820;2023-08-06T02:01:07;3.35;;;3.10;;
40595;SDS011;26304;48.794;9.820;2023-08-06T02:06:49;3.40;;;3.10;;
40595;SDS011;26304;48.794;9.820;2023-08-06T02:12:33;3.33;;;3.13;;
40595;SDS011;26304;48.794;9.820;2023-08-06T02:18:15;4.63;;;3.78;;
40595;SDS011;26304;48.794;9.820;2023-08-06T02:23:58;3.35;;;3.15;;
40595;SDS011;26304;48.794;9.820;2023-08-06T02:29:42;3.50;;;3.30;;
40595;SDS011;26304;48.794;9.820;2023-08-06T02:35:25;3.95;;;3.55;;
40595;SDS011;26304;48.794;9.820;2023-08-06T02:41:08;3.15;;;2.95;;
40595;SDS011;26304;48.794;9.820;2023-08-06T02:46:51;3.17;;;2.97;;
40595;SDS011;26304;48.794;9.820;2023-08-06T02:52:34;2.88;;;2.67;;
40595;SDS011;26304;48.794;9.820;2023-08-06T02:58:16;2.78;;;2.58;;
40595;SDS011;26304;48.794;9.820;2023-08-06T03:04:04;3.60;;;2.97;;
40595;SDS011;26304;48.794;9.820;2023-08-06T03:09:47;3.60;;;3.00;;
40595;SDS011;26304;48.794;9.820;2023-08-06T03:15:30;3.33;;;2.70;;
40595;SDS011;26304;48.794;9.820;2023-08-06T03:21:13;2.95;;;2.75;;
40595;SDS011;26304;48.794;9.820;2023-08-06T03:26:56;3.15;;;2.58;;
40595;SDS011;26304;48.794;9.820;2023-08-06T03:32:38;3.22;;;2.40;;
40595;SDS011;26304;48.794;9.820;2023-08-06T03:38:22;2.00;;;1.90;;
40595;SDS011;26304;48.794;9.820;2023-08-06T03:44:04;2.75;;;2.53;;
40595;SDS011;26304;48.794;9.820;2023-08-06T03:49:29;2.58;;;2.47;;
40595;SDS011;26304;48.794;9.820;2023-08-06T03:55:12;2.35;;;2.10;;
40595;SDS011;26304;48.794;9.820;2023-08-06T04:00:57;2.20;;;2.10;;
40595;SDS011;26304;48.794;9.820;2023-08-06T04:06:38;2.28;;;2.08;;
40595;SDS011;26304;48.794;9.820;2023-08-06T04:12:22;2.47;;;2.28;;
40595;SDS011;26304;48.794;9.820;2023-08-06T04:18:05;2.30;;;2.17;;
40595;SDS011;26304;48.794;9.820;2023-08-06T04:23:47;2.55;;;2.35;;
40595;SDS011;26304;48.794;9.820;2023-08-06T04:29:31;3.05;;;2.50;;
40595;SDS011;26304;48.794;9.820;2023-08-06T04:35:13;2.53;;;2.33;;
40595;SDS011;26304;48.794;9.820;2023-08-06T04:40:55;2.10;;;1.83;;
40595;SDS011;26304;48.794;9.820;2023-08-06T04:46:39;2.10;;;2.00;;
40595;SDS011;26304;48.794;9.820;2023-08-06T04:52:22;2.30;;;1.98;;
40595;SDS011;26304;48.794;9.820;2023-08-06T04:58:05;4.18;;;1.88;;
40595;SDS011;26304;48.794;9.820;2023-08-06T05:03:49;2.17;;;1.98;;
40595;SDS011;26304;48.794;9.820;2023-08-06T05:09:32;2.80;;;1.98;;
40595;SDS011;26304;48.794;9.820;2023-08-06T05:15:14;2.38;;;1.20;;
40595;SDS011;26304;48.794;9.820;2023-08-06T05:20:58;2.13;;;1.77;;
40595;SDS011;26304;48.794;9.820;2023-08-06T05:26:40;1.75;;;1.65;;
40595;SDS011;26304;48.794;9.820;2023-08-06T05:32:11;2.05;;;1.48;;
40595;SDS011;26304;48.794;9.820;2023-08-06T05:37:55;2.17;;;1.50;;
40595;SDS011;26304;48.794;9.820;2023-08-06T05:43:36;2.22;;;1.45;;
40595;SDS011;26304;48.794;9.820;2023-08-06T05:49:07;4.60;;;1.88;;
40595;SDS011;26304;48.794;9.820;2023-08-06T05:54:49;3.00;;;1.48;;
40595;SDS011;26304;48.794;9.820;2023-08-06T06:00:31;1.80;;;1.50;;
40595;SDS011;26304;48.794;9.820;2023-08-06T06:06:14;1.92;;;1.33;;
40595;SDS011;26304;48.794;9.820;2023-08-06T06:11:58;1.92;;;1.55;;
40595;SDS011;26304;48.794;9.820;2023-08-06T06:17:40;2.38;;;1.17;;
40595;SDS011;26304;48.794;9.820;2023-08-06T06:23:23;1.30;;;1.20;;
40595;SDS011;26304;48.794;9.820;2023-08-06T06:29:06;1.80;;;1.08;;
40595;SDS011;26304;48.794;9.820;2023-08-06T06:34:49;1.77;;;1.02;;
40595;SDS011;26304;48.794;9.820;2023-08-06T06:40:11;1.27;;;1.10;;
40595;SDS011;26304;48.794;9.820;2023-08-06T06:45:56;1.23;;;1.10;;
40595;SDS011;26304;48.794;9.820;2023-08-06T06:51:20;1.88;;;0.93;;
40595;SDS011;26304;48.794;9.820;2023-08-06T06:57:03;1.73;;;1.20;;
40595;SDS011;26304;48.794;9.820;2023-08-06T07:02:48;1.25;;;1.00;;
40595;SDS011;26304;48.794;9.820;2023-08-06T07:08:26;5.80;;;1.20;;
40595;SDS011;26304;48.794;9.820;2023-08-06T07:14:07;3.63;;;1.10;;
40595;SDS011;26304;48.794;9.820;2023-08-06T07:19:51;1.83;;;1.13;;
40595;SDS011;26304;48.794;9.820;2023-08-06T07:25:31;1.48;;;0.75;;
40595;SDS011;26304;48.794;9.820;2023-08-06T07:31:13;1.20;;;0.82;;
40595;SDS011;26304;48.794;9.820;2023-08-06T07:36:59;0.70;;;0.70;;
40595;SDS011;26304;48.794;9.820;2023-08-06T07:42:42;0.73;;;0.70;;
40595;SDS011;26304;48.794;9.820;2023-08-06T07:48:24;1.38;;;0.80;;
40595;SDS011;26304;48.794;9.820;2023-08-06T07:54:08;2.28;;;1.02;;
40595;SDS011;26304;48.794;9.820;2023-08-06T07:59:50;1.10;;;0.73;;
40595;SDS011;26304;48.794;9.820;2023-08-06T08:05:34;1.02;;;0.60;;
40595;SDS011;26304;48.794;9.820;2023-08-06T08:11:18;3.97;;;0.65;;
40595;SDS011;26304;48.794;9.820;2023-08-06T08:17:00;1.50;;;0.60;;
40595;SDS011;26304;48.794;9.820;2023-08-06T08:22:43;1.63;;;0.70;;
40595;SDS011;26304;48.794;9.820;2023-08-06T08:28:26;3.92;;;0.55;;
40595;SDS011;26304;48.794;9.820;2023-08-06T08:34:09;3.42;;;0.60;;
40595;SDS011;26304;48.794;9.820;2023-08-06T08:39:51;0.40;;;0.38;;
40595;SDS011;26304;48.794;9.820;2023-08-06T08:45:35;0.47;;;0.40;;
40595;SDS011;26304;48.794;9.820;2023-08-06T08:51:21;1.65;;;0.80;;
40595;SDS011;26304;48.794;9.820;2023-08-06T08:57:05;0.45;;;0.40;;
40595;SDS011;26304;48.794;9.820;2023-08-06T09:02:49;0.43;;;0.30;;
40595;SDS011;26304;48.794;9.820;2023-08-06T09:08:33;0.57;;;0.30;;
40595;SDS011;26304;48.794;9.820;2023-08-06T09:14:18;1.10;;;0.50;;
40595;SDS011;26304;48.794;9.820;2023-08-06T09:20:10;0.30;;;0.30;;
40595;SDS011;26304;48.794;9.820;2023-08-06T09:25:53;0.40;;;0.40;;
40595;SDS011;26304;48.794;9.820;2023-08-06T09:31:40;0.30;;;0.30;;
40595;SDS011;26304;48.794;9.820;2023-08-06T09:37:24;1.05;;;0.20;;
40595;SDS011;26304;48.794;9.820;2023-08-06T09:43:07;0.95;;;0.30;;
40595;SDS011;26304;48.794;9.820;2023-08-06T09:48:50;0.10;;;0.10;;
40595;SDS011;26304;48.794;9.820;2023-08-06T09:54:33;0.52;;;0.20;;
40595;SDS011;26304;48.794;9.820;2023-08-06T10:00:19;0.20;;;0.20;;
40595;SDS011;26304;48.794;9.820;2023-08-06T10:06:02;1.55;;;0.10;;
40595;SDS011;26304;48.794;9.820;2023-08-06T10:11:50;0.10;;;0.10;;
40595;SDS011;26304;48.794;9.820;2023-08-06T10:17:33;0.60;;;0.30;;
40595;SDS011;26304;48.794;9.820;2023-08-06T10:23:17;0.10;;;0.10;;
40595;SDS011;26304;48.794;9.820;2023-08-06T10:29:03;0.30;;;0.20;;
40595;SDS011;26304;48.794;9.820;2023-08-06T10:35:27;0.40;;;0.10;;
40595;SDS011;26304;48.794;9.820;2023-08-06T10:41:22;1.45;;;0.28;;
40595;SDS011;26304;48.794;9.820;2023-08-06T10:53:10;0.63;;;0.10;;
40595;SDS011;26304;48.794;9.820;2023-08-06T10:58:55;0.22;;;0.10;;
40595;SDS011;26304;48.794;9.820;2023-08-06T11:04:39;0.45;;;0.20;;
40595;SDS011;26304;48.794;9.820;2023-08-06T11:10:22;0.73;;;0.20;;
40595;SDS011;26304;48.794;9.820;2023-08-06T11:16:05;0.20;;;0.20;;
40595;SDS011;26304;48.794;9.820;2023-08-06T11:21:49;0.82;;;0.30;;
40595;SDS011;26304;48.794;9.820;2023-08-06T11:27:14;1.83;;;0.30;;
40595;SDS011;26304;48.794;9.820;2023-08-06T11:32:52;0.32;;;0.10;;
40595;SDS011;26304;48.794;9.820;2023-08-06T11:38:36;0.25;;;0.25;;
40595;SDS011;26304;48.794;9.820;2023-08-06T11:44:19;0.20;;;0.13;;
40595;SDS011;26304;48.794;9.820;2023-08-06T11:50:03;0.30;;;0.30;;
40595;SDS011;26304;48.794;9.820;2023-08-06T11:55:47;0.20;;;0.20;;
40595;SDS011;26304;48.794;9.820;2023-08-06T12:01:19;1.08;;;0.30;;
40595;SDS011;26304;48.794;9.820;2023-08-06T12:06:42;0.30;;;0.30;;
40595;SDS011;26304;48.794;9.820;2023-08-06T12:12:26;1.13;;;0.40;;
40595;SDS011;26304;48.794;9.820;2023-08-06T12:18:09;1.58;;;0.50;;
40595;SDS011;26304;48.794;9.820;2023-08-06T12:23:51;0.38;;;0.30;;
40595;SDS011;26304;48.794;9.820;2023-08-06T12:29:35;1.17;;;0.50;;
40595;SDS011;26304;48.794;9.820;2023-08-06T12:35:00;0.38;;;0.38;;
40595;SDS011;26304;48.794;9.820;2023-08-06T12:40:43;4.93;;;1.55;;
40595;SDS011;26304;48.794;9.820;2023-08-06T12:46:14;8.02;;;2.40;;
40595;SDS011;26304;48.794;9.820;2023-08-06T12:51:45;3.20;;;1.67;;
40595;SDS011;26304;48.794;9.820;2023-08-06T12:57:12;4.35;;;1.48;;
40595;SDS011;26304;48.794;9.820;2023-08-06T13:02:54;3.28;;;1.30;;
40595;SDS011;26304;48.794;9.820;2023-08-06T13:08:35;1.70;;;1.20;;
40595;SDS011;26304;48.794;9.820;2023-08-06T13:14:15;1.10;;;1.00;;
40595;SDS011;26304;48.794;9.820;2023-08-06T13:19:57;6.30;;;1.80;;
40595;SDS011;26304;48.794;9.820;2023-08-06T13:25:38;2.35;;;1.20;;
40595;SDS011;26304;48.794;9.820;2023-08-06T13:31:19;4.43;;;1.40;;
40595;SDS011;26304;48.794;9.820;2023-08-06T13:37:01;2.33;;;1.10;;
40595;SDS011;26304;48.794;9.820;2023-08-06T13:42:43;3.95;;;1.60;;
40595;SDS011;26304;48.794;9.820;2023-08-06T13:48:26;4.32;;;1.50;;
40595;SDS011;26304;48.794;9.820;2023-08-06T13:54:06;7.80;;;2.05;;
40595;SDS011;26304;48.794;9.820;2023-08-06T13:59:31;6.57;;;2.72;;
40595;SDS011;26304;48.794;9.820;2023-08-06T14:05:14;7.53;;;2.20;;
40595;SDS011;26304;48.794;9.820;2023-08-06T14:10:57;4.57;;;2.08;;
40595;SDS011;26304;48.794;9.820;2023-08-06T14:16:39;4.40;;;1.75;;
40595;SDS011;26304;48.794;9.820;2023-08-06T14:22:21;4.28;;;1.40;;
40595;SDS011;26304;48.794;9.820;2023-08-06T14:28:05;1.90;;;1.40;;
40595;SDS011;26304;48.794;9.820;2023-08-06T14:33:48;1.63;;;1.20;;
40595;SDS011;26304;48.794;9.820;2023-08-06T14:39:21;4.60;;;1.55;;
40595;SDS011;26304;48.794;9.820;2023-08-06T14:45:03;2.08;;;1.20;;
40595;SDS011;26304;48.794;9.820;2023-08-06T14:50:46;1.35;;;1.27;;
40595;SDS011;26304;48.794;9.820;2023-08-06T14:56:28;2.45;;;1.30;;
40595;SDS011;26304;48.794;9.820;2023-08-06T15:02:12;1.00;;;1.00;;
40595;SDS011;26304;48.794;9.820;2023-08-06T15:07:54;0.90;;;0.90;;
40595;SDS011;26304;48.794;9.820;2023-08-06T15:13:36;0.80;;;0.80;;
40595;SDS011;26304;48.794;9.820;2023-08-06T15:19:20;0.88;;;0.55;;
40595;SDS011;26304;48.794;9.820;2023-08-06T15:25:03;1.20;;;0.65;;
40595;SDS011;26304;48.794;9.820;2023-08-06T15:30:48;0.85;;;0.70;;
40595;SDS011;26304;48.794;9.820;2023-08-06T15:36:33;1.00;;;0.90;;
40595;SDS011;26304;48.794;9.820;2023-08-06T15:42:15;0.88;;;0.85;;
40595;SDS011;26304;48.794;9.820;2023-08-06T15:47:58;1.23;;;0.93;;
40595;SDS011;26304;48.794;9.820;2023-08-06T15:53:41;0.70;;;0.70;;
40595;SDS011;26304;48.794;9.820;2023-08-06T15:59:24;0.85;;;0.80;;
40595;SDS011;26304;48.794;9.820;2023-08-06T16:05:08;0.73;;;0.70;;
40595;SDS011;26304;48.794;9.820;2023-08-06T16:10:52;1.23;;;0.80;;
40595;SDS011;26304;48.794;9.820;2023-08-06T16:22:26;0.70;;;0.70;;
40595;SDS011;26304;48.794;9.820;2023-08-06T16:28:10;0.68;;;0.60;;
40595;SDS011;26304;48.794;9.820;2023-08-06T16:33:53;0.65;;;0.50;;
40595;SDS011;26304;48.794;9.820;2023-08-06T16:39:35;0.68;;;0.57;;
40595;SDS011;26304;48.794;9.820;2023-08-06T16:45:19;0.60;;;0.60;;
40595;SDS011;26304;48.794;9.820;2023-08-06T16:51:01;1.27;;;0.73;;
40595;SDS011;26304;48.794;9.820;2023-08-06T16:56:44;0.80;;;0.73;;
40595;SDS011;26304;48.794;9.820;2023-08-06T17:02:28;1.42;;;0.90;;
40595;SDS011;26304;48.794;9.820;2023-08-06T17:08:10;0.70;;;0.70;;
40595;SDS011;26304;48.794;9.820;2023-08-06T17:13:53;3.47;;;1.00;;
40595;SDS011;26304;48.794;9.820;2023-08-06T17:19:37;1.70;;;1.00;;
40595;SDS011;26304;48.794;9.820;2023-08-06T17:25:19;1.88;;;1.20;;
40595;SDS011;26304;48.794;9.820;2023-08-06T17:31:03;1.67;;;0.98;;
40595;SDS011;26304;48.794;9.820;2023-08-06T17:36:48;1.10;;;1.00;;
40595;SDS011;26304;48.794;9.820;2023-08-06T17:42:31;0.95;;;0.93;;
40595;SDS011;26304;48.794;9.820;2023-08-06T17:48:01;3.22;;;1.13;;
40595;SDS011;26304;48.794;9.820;2023-08-06T17:53:45;2.08;;;1.70;;
40595;SDS011;26304;48.794;9.820;2023-08-06T17:59:08;1.90;;;1.55;;
40595;SDS011;26304;48.794;9.820;2023-08-06T18:04:35;1.42;;;1.25;;
40595;SDS011;26304;48.794;9.820;2023-08-06T18:10:02;4.18;;;1.38;;
40595;SDS011;26304;48.794;9.820;2023-08-06T18:15:37;2.92;;;0.93;;
40595;SDS011;26304;48.794;9.820;2023-08-06T18:21:20;1.35;;;1.00;;
40595;SDS011;26304;48.794;9.820;2023-08-06T18:27:04;1.08;;;0.90;;
40595;SDS011;26304;48.794;9.820;2023-08-06T18:32:47;2.38;;;1.08;;
40595;SDS011;26304;48.794;9.820;2023-08-06T18:38:29;1.42;;;0.98;;
40595;SDS011;26304;48.794;9.820;2023-08-06T18:44:13;2.15;;;0.88;;
40595;SDS011;26304;48.794;9.820;2023-08-06T18:49:56;1.02;;;0.75;;
40595;SDS011;26304;48.794;9.820;2023-08-06T18:55:22;1.23;;;0.80;;
40595;SDS011;26304;48.794;9.820;2023-08-06T19:00:54;6.18;;;1.00;;
40595;SDS011;26304;48.794;9.820;2023-08-06T19:06:26;0.98;;;0.80;;
40595;SDS011;26304;48.794;9.820;2023-08-06T19:12:08;1.15;;;0.70;;
40595;SDS011;26304;48.794;9.820;2023-08-06T19:17:50;0.60;;;0.60;;
40595;SDS011;26304;48.794;9.820;2023-08-06T19:23:31;2.05;;;0.90;;
40595;SDS011;26304;48.794;9.820;2023-08-06T19:28:53;2.03;;;0.90;;
40595;SDS011;26304;48.794;9.820;2023-08-06T19:34:17;2.92;;;1.20;;
40595;SDS011;26304;48.794;9.820;2023-08-06T19:39:40;3.55;;;1.00;;
40595;SDS011;26304;48.794;9.820;2023-08-06T19:45:20;2.03;;;0.98;;
40595;SDS011;26304;48.794;9.820;2023-08-06T19:51:04;2.35;;;1.02;;
40595;SDS011;26304;48.794;9.820;2023-08-06T19:56:46;1.38;;;1.15;;
40595;SDS011;26304;48.794;9.820;2023-08-06T20:02:28;1.35;;;1.10;;
40595;SDS011;26304;48.794;9.820;2023-08-06T20:08:12;1.30;;;1.20;;
40595;SDS011;26304;48.794;9.820;2023-08-06T20:13:55;1.17;;;1.05;;
40595;SDS011;26304;48.794;9.820;2023-08-06T20:19:37;1.35;;;1.25;;
40595;SDS011;26304;48.794;9.820;2023-08-06T20:25:21;2.63;;;1.23;;
40595;SDS011;26304;48.794;9.820;2023-08-06T20:31:04;1.85;;;1.30;;
40595;SDS011;26304;48.794;9.820;2023-08-06T20:36:46;2.55;;;1.25;;
40595;SDS011;26304;48.794;9.820;2023-08-06T20:42:30;1.88;;;1.10;;
40595;SDS011;26304;48.794;9.820;2023-08-06T20:48:12;1.55;;;1.20;;
40595;SDS011;26304;48.794;9.820;2023-08-06T20:53:55;2.25;;;0.90;;
40595;SDS011;26304;48.794;9.820;2023-08-06T20:59:24;1.58;;;1.10;;
40595;SDS011;26304;48.794;9.820;2023-08-06T21:05:06;0.85;;;0.85;;
40595;SDS011;26304;48.794;9.820;2023-08-06T21:10:49;1.88;;;1.30;;
40595;SDS011;26304;48.794;9.820;2023-08-06T21:16:33;1.00;;;1.00;;
40595;SDS011;26304;48.794;9.820;2023-08-06T21:21:59;1.13;;;1.00;;
40595;SDS011;26304;48.794;9.820;2023-08-06T21:27:42;1.10;;;0.98;;
40595;SDS011;26304;48.794;9.820;2023-08-06T21:33:31;1.98;;;1.00;;
40595;SDS011;26304;48.794;9.820;2023-08-06T21:39:14;2.00;;;1.10;;
40595;SDS011;26304;48.794;9.820;2023-08-06T21:44:56;1.15;;;0.82;;
40595;SDS011;26304;48.794;9.820;2023-08-06T21:50:43;1.17;;;1.08;;
40595;SDS011;26304;48.794;9.820;2023-08-06T21:56:26;1.00;;;0.90;;
40595;SDS011;26304;48.794;9.820;2023-08-06T22:02:08;2.60;;;1.00;;
40595;SDS011;26304;48.794;9.820;2023-08-06T22:07:52;0.82;;;0.80;;
40595;SDS011;26304;48.794;9.820;2023-08-06T22:13:34;1.08;;;0.70;;
40595;SDS011;26304;48.794;9.820;2023-08-06T22:19:18;0.68;;;0.65;;
40595;SDS011;26304;48.794;9.820;2023-08-06T22:25:02;1.15;;;0.98;;
40595;SDS011;26304;48.794;9.820;2023-08-06T22:30:45;2.28;;;0.80;;
40595;SDS011;26304;48.794;9.820;2023-08-06T22:36:28;1.40;;;0.90;;
40595;SDS011;26304;48.794;9.820;2023-08-06T22:42:11;1.73;;;1.00;;
40595;SDS011;26304;48.794;9.820;2023-08-06T22:47:55;0.77;;;0.60;;
40595;SDS011;26304;48.794;9.820;2023-08-06T22:53:37;1.15;;;1.05;;
40595;SDS011;26304;48.794;9.820;2023-08-06T22:59:21;1.20;;;1.10;;
40595;SDS011;26304;48.794;9.820;2023-08-06T23:05:04;0.75;;;0.75;;
40595;SDS011;26304;48.794;9.820;2023-08-06T23:10:46;0.93;;;0.70;;
40595;SDS011;26304;48.794;9.820;2023-08-06T23:16:30;2.30;;;0.80;;
40595;SDS011;26304;48.794;9.820;2023-08-06T23:22:15;0.90;;;0.80;;
40595;SDS011;26304;48.794;9.820;2023-08-06T23:27:57;1.08;;;0.90;;
40595;SDS011;26304;48.794;9.820;2023-08-06T23:33:41;1.10;;;0.77;;
40595;SDS011;26304;48.794;9.820;2023-08-06T23:39:23;0.93;;;0.65;;
40595;SDS011;26304;48.794;9.820;2023-08-06T23:45:07;0.95;;;0.80;;
40595;SDS011;26304;48.794;9.820;2023-08-06T23:50:51;1.48;;;0.90;;
40595;SDS011;26304;48.794;9.820;2023-08-06T23:56:33;1.20;;;1.10;;
